Wake Forest, NC

6:53 PM EDT on August 30, 2015 (GMT -0400)
Crescent Ridge | | Change Station
CLOSE
Current Station
Personal Weather Station
Location: WAKE FOREST, NC
Elevation: 381 ft
Nearby Weather Stations

Elev 381 ft 36.04 °N, 78.62 °W | Updated 6 seconds ago

Partly Cloudy
Partly Cloudy
79.7 °F
Feels Like 82 °F
N
0.0
Wind Variable Wind from SE
Gusts 0.0 mph

Today
High -- | Low -- °F
--% Chance of Precip.
Yesterday
High -- | Low -- °F
Precip. -- in
6:44 AM 7:45 PM
Full, 98% visible
Pressure 30.12 in
Visibility 10.0 miles
Clouds Few 4500 ft
Mostly Cloudy 9500 ft
Overcast 12000 ft
Heat Index 82 °F
Dew Point 68 °F
Humidity 68%
Rainfall 0.00 in
Snow Depth Not available.
UV 0 out of 12
Pollen 7.80 out of 12
Air Quality Not available.
Flu Activity Not available.
METAR KRDU 302251Z 20004KT 10SM FEW045 BKN095 OVC120 27/16 A3013 RMK AO2 SLP198 T02670161
Pressure 30.12 in
Visibility 10.0 miles
Clouds Few 4500 ft
Mostly Cloudy 9500 ft
Overcast 12000 ft
Heat Index 82 °F
Dew Point 68 °F
Humidity 68%
Rainfall 0.00 in
Snow Depth Not available.
UV 0 out of 12
Pollen 7.80 out of 12
Air Quality Not available.
Flu Activity Not available.
METAR KRDU 302251Z 20004KT 10SM FEW045 BKN095 OVC120 27/16 A3013 RMK AO2 SLP198 T02670161

10-Day Weather Forecast

×

Almanac

Astronomy

Aug. 30, 2015 Rise Set
Actual Time
Civil Twilight
Nautical Twilight
Astronomical Twilight
Moon
Length of Visible Light
Length of Day
Tomorrow will be .
, % of the Moon is Illuminated

Today's Extremes

State Highs State Lows

Community

WunderPhotos

Upload Photos

1,851,075 photos uploaded!

WunderBlogs® & News

Nearby

Air Quality

  Air Quality AQ Index Pollutant
Not available.

Snow Depth

Station Depth Elevation

Earthquake Activity

City Distance Mag. Time & Date
Minimum magnitude displayed is 2.5.

Coastal Water Temperatures

Place Temperature

Stations

Nearby Weather Stations

Station Location Temp. Windchill Dew Point Humidity Wind Precip. Elev Updated Type